Zografos, Greece
Current Conditions -  °F | °C
As of 8:20 AM on Friday 31 Oct 2014 (Local Time) from LGTS Reporting Station
Scattered Clouds Scattered Clouds  
Wind Chill: 54°   Ceiling: Unl
Heat Index: 54°   Visibility: 6mi
Dew Point: 43°   Wind: 14mph
Humidity: 67%   Direction: 340°NNW
Pressure: 30.12"   Gusts: NA
Location:  40.28°N, 23.25°E
Report Text: LGTS 310520Z 34012KT 9999 FEW025 SCT080 12/06 Q1020 NOSIG
Loading
Personal Weather Stations






























Interactive Weather Map
Tropical Storm Tracking
New forecast layout! Learn more

10-Day Weather Forecast

Advertisements
Track Severe Weather on mobile